sensor_id;sensor_type;location;lat;lon;timestamp;temperature;humidity
12233;DHT22;6179;51.748;8.728;2022-12-07T00:04:51;4.70;98.30
12233;DHT22;6179;51.748;8.728;2022-12-07T00:10:51;4.90;98.30
12233;DHT22;6179;51.748;8.728;2022-12-07T00:16:52;4.90;98.30
12233;DHT22;6179;51.748;8.728;2022-12-07T00:22:53;4.60;98.30
12233;DHT22;6179;51.748;8.728;2022-12-07T00:28:59;4.60;98.30
12233;DHT22;6179;51.748;8.728;2022-12-07T00:35:02;4.50;98.30
12233;DHT22;6179;51.748;8.728;2022-12-07T00:41:05;4.90;98.30
12233;DHT22;6179;51.748;8.728;2022-12-07T00:47:12;4.70;98.30
12233;DHT22;6179;51.748;8.728;2022-12-07T00:53:13;4.60;98.30
12233;DHT22;6179;51.748;8.728;2022-12-07T00:59:15;4.50;98.30
12233;DHT22;6179;51.748;8.728;2022-12-07T01:05:16;4.70;98.30
12233;DHT22;6179;51.748;8.728;2022-12-07T01:11:20;4.70;98.30
12233;DHT22;6179;51.748;8.728;2022-12-07T01:17:23;4.90;98.30
12233;DHT22;6179;51.748;8.728;2022-12-07T01:23:23;4.80;98.30
12233;DHT22;6179;51.748;8.728;2022-12-07T01:29:24;4.80;98.30
12233;DHT22;6179;51.748;8.728;2022-12-07T01:35:25;4.80;98.30
12233;DHT22;6179;51.748;8.728;2022-12-07T01:41:28;4.50;98.30
12233;DHT22;6179;51.748;8.728;2022-12-07T01:47:32;4.60;98.30
12233;DHT22;6179;51.748;8.728;2022-12-07T01:53:35;4.90;98.30
12233;DHT22;6179;51.748;8.728;2022-12-07T01:59:39;5.10;98.30
12233;DHT22;6179;51.748;8.728;2022-12-07T02:05:42;5.20;98.30
12233;DHT22;6179;51.748;8.728;2022-12-07T02:11:43;5.00;98.30
12233;DHT22;6179;51.748;8.728;2022-12-07T02:17:58;5.20;98.30
12233;DHT22;6179;51.748;8.728;2022-12-07T02:31:15;5.00;98.30
12233;DHT22;6179;51.748;8.728;2022-12-07T02:38:07;5.00;98.30
12233;DHT22;6179;51.748;8.728;2022-12-07T02:44:28;5.20;98.30
12233;DHT22;6179;51.748;8.728;2022-12-07T02:50:31;5.20;98.30
12233;DHT22;6179;51.748;8.728;2022-12-07T03:09:08;5.20;98.30
12233;DHT22;6179;51.748;8.728;2022-12-07T03:15:27;5.30;98.30
12233;DHT22;6179;51.748;8.728;2022-12-07T03:21:38;5.30;98.30
12233;DHT22;6179;51.748;8.728;2022-12-07T03:40:50;5.20;98.30
12233;DHT22;6179;51.748;8.728;2022-12-07T03:47:13;5.00;98.30
12233;DHT22;6179;51.748;8.728;2022-12-07T03:53:37;5.10;98.30
12233;DHT22;6179;51.748;8.728;2022-12-07T03:59:42;5.30;98.30
12233;DHT22;6179;51.748;8.728;2022-12-07T04:05:44;5.20;98.30
12233;DHT22;6179;51.748;8.728;2022-12-07T04:11:46;5.10;98.30
12233;DHT22;6179;51.748;8.728;2022-12-07T04:17:47;5.20;98.30
12233;DHT22;6179;51.748;8.728;2022-12-07T04:23:48;5.20;98.30
12233;DHT22;6179;51.748;8.728;2022-12-07T04:29:49;4.70;98.30
12233;DHT22;6179;51.748;8.728;2022-12-07T04:35:49;4.80;98.30
12233;DHT22;6179;51.748;8.728;2022-12-07T04:41:51;4.60;98.30
12233;DHT22;6179;51.748;8.728;2022-12-07T04:47:52;4.70;98.30
12233;DHT22;6179;51.748;8.728;2022-12-07T04:53:53;4.90;98.30
12233;DHT22;6179;51.748;8.728;2022-12-07T04:59:54;5.00;98.30
12233;DHT22;6179;51.748;8.728;2022-12-07T05:05:55;4.80;98.30
12233;DHT22;6179;51.748;8.728;2022-12-07T05:11:56;4.50;98.30
12233;DHT22;6179;51.748;8.728;2022-12-07T05:17:56;4.60;98.30
12233;DHT22;6179;51.748;8.728;2022-12-07T05:23:57;4.60;98.30
12233;DHT22;6179;51.748;8.728;2022-12-07T05:29:58;4.90;98.30
12233;DHT22;6179;51.748;8.728;2022-12-07T05:35:59;4.90;98.30
12233;DHT22;6179;51.748;8.728;2022-12-07T05:42:05;4.60;98.30
12233;DHT22;6179;51.748;8.728;2022-12-07T05:48:15;4.50;98.30
12233;DHT22;6179;51.748;8.728;2022-12-07T05:54:15;4.50;98.30
12233;DHT22;6179;51.748;8.728;2022-12-07T06:00:16;4.40;98.30
12233;DHT22;6179;51.748;8.728;2022-12-07T06:06:17;4.30;98.30
12233;DHT22;6179;51.748;8.728;2022-12-07T06:12:18;4.40;98.30
12233;DHT22;6179;51.748;8.728;2022-12-07T06:18:34;4.40;98.30
12233;DHT22;6179;51.748;8.728;2022-12-07T06:24:35;4.50;98.30
12233;DHT22;6179;51.748;8.728;2022-12-07T06:30:36;4.80;98.30
12233;DHT22;6179;51.748;8.728;2022-12-07T06:36:37;4.20;98.30
12233;DHT22;6179;51.748;8.728;2022-12-07T06:42:38;4.20;98.30
12233;DHT22;6179;51.748;8.728;2022-12-07T06:48:39;4.10;98.30
12233;DHT22;6179;51.748;8.728;2022-12-07T06:54:40;4.40;98.30
12233;DHT22;6179;51.748;8.728;2022-12-07T07:00:41;4.00;98.30
12233;DHT22;6179;51.748;8.728;2022-12-07T07:06:41;3.60;98.30
12233;DHT22;6179;51.748;8.728;2022-12-07T07:12:42;4.10;98.30
12233;DHT22;6179;51.748;8.728;2022-12-07T07:18:43;4.10;98.30
12233;DHT22;6179;51.748;8.728;2022-12-07T07:24:44;3.80;98.30
12233;DHT22;6179;51.748;8.728;2022-12-07T07:30:45;3.80;98.30
12233;DHT22;6179;51.748;8.728;2022-12-07T07:36:45;4.00;98.30
12233;DHT22;6179;51.748;8.728;2022-12-07T07:42:51;4.30;98.30
12233;DHT22;6179;51.748;8.728;2022-12-07T07:48:53;4.00;98.30
12233;DHT22;6179;51.748;8.728;2022-12-07T07:54:54;4.10;98.30
12233;DHT22;6179;51.748;8.728;2022-12-07T08:00:54;4.10;98.30
12233;DHT22;6179;51.748;8.728;2022-12-07T08:06:56;4.10;98.30
12233;DHT22;6179;51.748;8.728;2022-12-07T08:12:58;4.30;98.30
12233;DHT22;6179;51.748;8.728;2022-12-07T08:19:11;4.30;98.30
12233;DHT22;6179;51.748;8.728;2022-12-07T08:25:12;3.70;98.30
12233;DHT22;6179;51.748;8.728;2022-12-07T08:31:16;3.60;98.30
12233;DHT22;6179;51.748;8.728;2022-12-07T08:37:18;3.80;98.30
12233;DHT22;6179;51.748;8.728;2022-12-07T08:43:19;3.90;98.30
12233;DHT22;6179;51.748;8.728;2022-12-07T08:49:24;3.80;98.30
12233;DHT22;6179;51.748;8.728;2022-12-07T08:55:29;4.10;98.30
12233;DHT22;6179;51.748;8.728;2022-12-07T09:01:30;4.30;98.30
12233;DHT22;6179;51.748;8.728;2022-12-07T09:07:33;4.00;98.30
12233;DHT22;6179;51.748;8.728;2022-12-07T09:13:34;4.00;98.30
12233;DHT22;6179;51.748;8.728;2022-12-07T09:19:35;3.90;98.30
12233;DHT22;6179;51.748;8.728;2022-12-07T09:25:37;3.90;98.30
12233;DHT22;6179;51.748;8.728;2022-12-07T09:31:37;3.60;98.30
12233;DHT22;6179;51.748;8.728;2022-12-07T09:37:38;3.80;98.30
12233;DHT22;6179;51.748;8.728;2022-12-07T09:43:40;4.00;98.30
12233;DHT22;6179;51.748;8.728;2022-12-07T09:49:41;4.10;98.30
12233;DHT22;6179;51.748;8.728;2022-12-07T09:55:43;4.20;98.30
12233;DHT22;6179;51.748;8.728;2022-12-07T10:01:49;4.40;98.30
12233;DHT22;6179;51.748;8.728;2022-12-07T10:07:51;4.00;98.30
12233;DHT22;6179;51.748;8.728;2022-12-07T10:13:53;4.60;98.30
12233;DHT22;6179;51.748;8.728;2022-12-07T10:20:13;5.00;98.30
12233;DHT22;6179;51.748;8.728;2022-12-07T10:26:35;5.30;98.30
12233;DHT22;6179;51.748;8.728;2022-12-07T10:32:38;5.00;98.30
12233;DHT22;6179;51.748;8.728;2022-12-07T10:38:45;4.70;98.30
12233;DHT22;6179;51.748;8.728;2022-12-07T10:44:49;5.00;98.30
12233;DHT22;6179;51.748;8.728;2022-12-07T11:11:06;5.00;98.30
12233;DHT22;6179;51.748;8.728;2022-12-07T11:17:25;5.20;98.30
12233;DHT22;6179;51.748;8.728;2022-12-07T11:42:42;5.60;98.30
12233;DHT22;6179;51.748;8.728;2022-12-07T12:08:22;5.60;98.30
12233;DHT22;6179;51.748;8.728;2022-12-07T12:20:57;5.60;98.30
12233;DHT22;6179;51.748;8.728;2022-12-07T12:27:06;6.00;98.30
12233;DHT22;6179;51.748;8.728;2022-12-07T12:33:26;6.00;98.30
12233;DHT22;6179;51.748;8.728;2022-12-07T12:39:29;5.70;98.30
12233;DHT22;6179;51.748;8.728;2022-12-07T12:45:32;5.60;98.30
12233;DHT22;6179;51.748;8.728;2022-12-07T12:51:51;5.30;98.30
12233;DHT22;6179;51.748;8.728;2022-12-07T13:04:29;5.20;98.30
12233;DHT22;6179;51.748;8.728;2022-12-07T13:10:51;5.50;98.30
12233;DHT22;6179;51.748;8.728;2022-12-07T13:16:51;5.50;98.30
12233;DHT22;6179;51.748;8.728;2022-12-07T13:22:53;5.90;98.30
12233;DHT22;6179;51.748;8.728;2022-12-07T13:35:34;6.00;98.30
12233;DHT22;6179;51.748;8.728;2022-12-07T13:41:42;5.90;98.30
12233;DHT22;6179;51.748;8.728;2022-12-07T13:47:56;5.60;98.30
12233;DHT22;6179;51.748;8.728;2022-12-07T13:54:07;5.20;98.30
12233;DHT22;6179;51.748;8.728;2022-12-07T14:00:20;5.10;98.30
12233;DHT22;6179;51.748;8.728;2022-12-07T14:06:25;5.30;98.30
12233;DHT22;6179;51.748;8.728;2022-12-07T14:12:29;5.50;98.30
12233;DHT22;6179;51.748;8.728;2022-12-07T14:18:37;5.50;98.30
12233;DHT22;6179;51.748;8.728;2022-12-07T14:24:43;5.80;98.30
12233;DHT22;6179;51.748;8.728;2022-12-07T14:30:44;5.80;98.30
12233;DHT22;6179;51.748;8.728;2022-12-07T14:36:45;5.60;98.30
12233;DHT22;6179;51.748;8.728;2022-12-07T14:42:48;5.80;98.30
12233;DHT22;6179;51.748;8.728;2022-12-07T14:48:51;5.60;98.30
12233;DHT22;6179;51.748;8.728;2022-12-07T14:54:52;5.40;98.30
12233;DHT22;6179;51.748;8.728;2022-12-07T15:00:53;5.20;98.30
12233;DHT22;6179;51.748;8.728;2022-12-07T15:06:56;5.10;98.30
12233;DHT22;6179;51.748;8.728;2022-12-07T15:13:02;5.00;98.30
12233;DHT22;6179;51.748;8.728;2022-12-07T15:19:23;4.90;98.30
12233;DHT22;6179;51.748;8.728;2022-12-07T15:25:26;4.60;98.30
12233;DHT22;6179;51.748;8.728;2022-12-07T15:31:27;4.70;98.30
12233;DHT22;6179;51.748;8.728;2022-12-07T15:37:27;4.60;98.30
12233;DHT22;6179;51.748;8.728;2022-12-07T15:43:28;4.60;98.30
12233;DHT22;6179;51.748;8.728;2022-12-07T15:49:47;4.70;98.30
12233;DHT22;6179;51.748;8.728;2022-12-07T15:55:48;4.60;98.30
12233;DHT22;6179;51.748;8.728;2022-12-07T16:01:49;4.50;98.30
12233;DHT22;6179;51.748;8.728;2022-12-07T16:07:50;4.60;98.30
12233;DHT22;6179;51.748;8.728;2022-12-07T16:13:50;4.80;98.30
12233;DHT22;6179;51.748;8.728;2022-12-07T16:19:51;4.60;98.30
12233;DHT22;6179;51.748;8.728;2022-12-07T16:25:53;4.50;98.30
12233;DHT22;6179;51.748;8.728;2022-12-07T16:31:54;4.60;98.30
12233;DHT22;6179;51.748;8.728;2022-12-07T16:37:55;4.60;98.30
12233;DHT22;6179;51.748;8.728;2022-12-07T16:43:56;4.50;98.30
12233;DHT22;6179;51.748;8.728;2022-12-07T16:49:57;4.40;98.30
12233;DHT22;6179;51.748;8.728;2022-12-07T16:55:58;4.50;98.30
12233;DHT22;6179;51.748;8.728;2022-12-07T17:01:58;4.40;98.30
12233;DHT22;6179;51.748;8.728;2022-12-07T17:08:01;4.60;98.30
12233;DHT22;6179;51.748;8.728;2022-12-07T17:14:03;4.50;98.30
12233;DHT22;6179;51.748;8.728;2022-12-07T17:20:26;4.60;98.30
12233;DHT22;6179;51.748;8.728;2022-12-07T17:26:28;4.50;98.30
12233;DHT22;6179;51.748;8.728;2022-12-07T17:32:29;4.40;98.30
12233;DHT22;6179;51.748;8.728;2022-12-07T17:38:30;4.20;98.30
12233;DHT22;6179;51.748;8.728;2022-12-07T17:44:31;4.30;98.30
12233;DHT22;6179;51.748;8.728;2022-12-07T17:50:32;4.30;98.30
12233;DHT22;6179;51.748;8.728;2022-12-07T17:56:51;4.10;98.30
12233;DHT22;6179;51.748;8.728;2022-12-07T18:02:52;4.00;98.30
12233;DHT22;6179;51.748;8.728;2022-12-07T18:08:53;4.00;98.30
12233;DHT22;6179;51.748;8.728;2022-12-07T18:14:54;4.30;98.30
12233;DHT22;6179;51.748;8.728;2022-12-07T18:20:55;4.20;98.30
12233;DHT22;6179;51.748;8.728;2022-12-07T18:26:55;4.40;98.30
12233;DHT22;6179;51.748;8.728;2022-12-07T18:32:56;4.40;98.30
12233;DHT22;6179;51.748;8.728;2022-12-07T18:38:57;4.50;98.30
12233;DHT22;6179;51.748;8.728;2022-12-07T18:44:58;4.60;98.30
12233;DHT22;6179;51.748;8.728;2022-12-07T18:51:03;4.40;98.30
12233;DHT22;6179;51.748;8.728;2022-12-07T18:57:05;4.30;98.30
12233;DHT22;6179;51.748;8.728;2022-12-07T19:03:05;4.40;98.30
12233;DHT22;6179;51.748;8.728;2022-12-07T19:09:06;4.10;98.30
12233;DHT22;6179;51.748;8.728;2022-12-07T19:15:08;4.10;98.30
12233;DHT22;6179;51.748;8.728;2022-12-07T19:21:11;4.40;98.30
12233;DHT22;6179;51.748;8.728;2022-12-07T19:27:12;4.50;98.30
12233;DHT22;6179;51.748;8.728;2022-12-07T19:33:14;4.30;98.30
12233;DHT22;6179;51.748;8.728;2022-12-07T19:39:14;4.50;98.30
12233;DHT22;6179;51.748;8.728;2022-12-07T19:45:15;4.70;98.30
12233;DHT22;6179;51.748;8.728;2022-12-07T19:51:16;4.60;98.30
12233;DHT22;6179;51.748;8.728;2022-12-07T19:57:17;4.30;98.30
12233;DHT22;6179;51.748;8.728;2022-12-07T20:03:19;4.70;98.30
12233;DHT22;6179;51.748;8.728;2022-12-07T20:09:20;4.70;98.30
12233;DHT22;6179;51.748;8.728;2022-12-07T20:15:21;4.60;98.30
12233;DHT22;6179;51.748;8.728;2022-12-07T20:21:21;4.50;98.30
12233;DHT22;6179;51.748;8.728;2022-12-07T20:27:23;4.40;98.30
12233;DHT22;6179;51.748;8.728;2022-12-07T20:33:24;4.60;98.30
12233;DHT22;6179;51.748;8.728;2022-12-07T20:39:25;4.60;98.30
12233;DHT22;6179;51.748;8.728;2022-12-07T20:45:26;4.50;98.30
12233;DHT22;6179;51.748;8.728;2022-12-07T20:51:28;4.60;98.30
12233;DHT22;6179;51.748;8.728;2022-12-07T20:57:29;4.60;98.30
12233;DHT22;6179;51.748;8.728;2022-12-07T21:03:30;4.70;98.30
12233;DHT22;6179;51.748;8.728;2022-12-07T21:09:31;4.60;98.30
12233;DHT22;6179;51.748;8.728;2022-12-07T21:15:31;4.40;98.30
12233;DHT22;6179;51.748;8.728;2022-12-07T21:21:33;4.40;98.30
12233;DHT22;6179;51.748;8.728;2022-12-07T21:27:34;4.50;98.30
12233;DHT22;6179;51.748;8.728;2022-12-07T21:33:35;4.50;98.30
12233;DHT22;6179;51.748;8.728;2022-12-07T21:39:36;4.30;98.30
12233;DHT22;6179;51.748;8.728;2022-12-07T21:45:36;4.30;98.30
12233;DHT22;6179;51.748;8.728;2022-12-07T21:51:38;4.50;98.30
12233;DHT22;6179;51.748;8.728;2022-12-07T21:57:39;4.70;98.30
12233;DHT22;6179;51.748;8.728;2022-12-07T22:03:40;4.30;98.30
12233;DHT22;6179;51.748;8.728;2022-12-07T22:09:41;4.20;98.30
12233;DHT22;6179;51.748;8.728;2022-12-07T22:15:42;4.40;98.30
12233;DHT22;6179;51.748;8.728;2022-12-07T22:21:43;4.30;98.30
12233;DHT22;6179;51.748;8.728;2022-12-07T22:27:44;4.30;98.30
12233;DHT22;6179;51.748;8.728;2022-12-07T22:33:45;4.20;98.30
12233;DHT22;6179;51.748;8.728;2022-12-07T22:39:46;4.10;98.30
12233;DHT22;6179;51.748;8.728;2022-12-07T22:45:57;4.20;98.30
12233;DHT22;6179;51.748;8.728;2022-12-07T22:51:58;4.00;98.30
12233;DHT22;6179;51.748;8.728;2022-12-07T22:57:59;4.30;98.30
12233;DHT22;6179;51.748;8.728;2022-12-07T23:04:00;4.50;98.30
12233;DHT22;6179;51.748;8.728;2022-12-07T23:10:01;4.10;98.30
12233;DHT22;6179;51.748;8.728;2022-12-07T23:16:13;4.40;98.30
12233;DHT22;6179;51.748;8.728;2022-12-07T23:22:14;4.20;98.30
12233;DHT22;6179;51.748;8.728;2022-12-07T23:28:15;4.20;98.30
12233;DHT22;6179;51.748;8.728;2022-12-07T23:34:16;4.40;98.30
12233;DHT22;6179;51.748;8.728;2022-12-07T23:40:17;4.40;98.30
12233;DHT22;6179;51.748;8.728;2022-12-07T23:46:20;4.50;98.30
12233;DHT22;6179;51.748;8.728;2022-12-07T23:52:23;4.80;98.30
12233;DHT22;6179;51.748;8.728;2022-12-07T23:58:24;4.20;98.30
